首页
METAR-TAF:

METAR-TAF

机场 :

多維爾, 法国

纬度: 49-21-55N, 经度: 000-09-16E, 海拔: 146米

当前天气观测

该预报发布于42分钟前的01:30 UTC
风速8节,风向南转南东
温度 11°C
湿度 62%
气压 1013 hPa
能见度10公里或以上
少量云层高于3100英尺
多云层高于4100英尺
阴天层高于5000英尺

METAR: LFRG 080130Z AUTO 16008KT 9999 FEW031 BKN041 OVC050 11/04 Q1013

时间: 04:12 (02:12 UTC)

预报

该预报发布于12小时和12分钟前的14:00 UTC
预报有效从07日的 15点(UTC)到 07日的 24点(UTC)
风速5节,风向多变
能见度10公里或以上
1500米以下无云,无积雨云
成为
从 07日的 21点(UTC)到 07日的 23点(UTC)
风速10节,风向南转南东

TAF: LFRG 071400Z 0715/0724 VRB05KT CAVOK BECMG 0721/0723 15010KT

超过4000个机场的气象观测和天气预报(METAR&TAF报告)。

可查询的气象台以黄色和红色小点在地图上表示。

将鼠标移到小点上方,可查看气象台名称。

然后点击查看天气观测和预报。

如需切换地图:点击带黑十字的绿色按钮放大地图;点击带横线的绿色按钮缩小地图;或者点击绿色箭头查看邻近地区的地图。


METAR-TAF: